KCNU/CNU METAR and TAF weather

Enter ICAO airport designator
Station Type Date Time Source
KCNU METAR 2020/09/20 00:52 UTC NOAA

KCNU 200052Z AUTO 11004KT 10SM CLR 19/12 A3016 RMK AO2 SLP209 T01940117


Station Type Date Time Source
KCNU Decoded METAR 2020/09/20 00:52 UTC NOAA

CHANUTE JOHNSON AIRPORT, KS, United States (KCNU) 37-40N 95-29W 297M
Sep 19, 2020 - 08:52 PM EDT / 2020.09.20 0052 UTC
Wind: from the ESE (110 degrees) at 5 MPH (4 KT):0
Visibility: 10 mile(s):0
Sky conditions: clear
Temperature: 66.9 F (19.4 C)
Dew Point: 53.1 F (11.7 C)
Relative Humidity: 61%
Pressure (altimeter): 30.16 in. Hg (1021 hPa)
ob: KCNU 200052Z AUTO 11004KT 10SM CLR 19/12 A3016 RMK AO2 SLP209 T01940117
cycle: 1

Station Type Date Time Source
KCNU TAF 2020/09/19 18:28 UTC NOAA

TAF KCNU 191726Z 1918/2018 15008KT P6SM FEW250
FM200000 13007KT P6SM FEW250

Example: see airport list